createdAt,value
2018-03-07T00:00:35.239Z,98944.94
2018-03-07T00:01:39.349Z,98945.34
2018-03-07T00:02:42.672Z,98946.27
2018-03-07T00:03:46.107Z,98956.48
2018-03-07T00:04:49.656Z,98948.51
2018-03-07T00:05:53.118Z,98949.75
2018-03-07T00:06:56.531Z,98947.39
2018-03-07T00:07:59.885Z,98942.60
2018-03-07T00:09:03.317Z,98944.34
2018-03-07T00:10:06.726Z,98937.70
2018-03-07T00:11:10.236Z,98943.82
2018-03-07T00:12:14.308Z,98944.34
2018-03-07T00:13:17.713Z,98938.20
2018-03-07T00:14:21.232Z,98941.27
2018-03-07T00:15:25.304Z,98943.60
2018-03-07T00:16:28.735Z,98941.94
2018-03-07T00:17:32.114Z,98940.61
2018-03-07T00:18:35.544Z,98938.45
2018-03-07T00:19:38.971Z,98942.44
2018-03-07T00:20:42.286Z,98940.61
2018-03-07T00:21:45.673Z,98937.95
2018-03-07T00:22:49.023Z,98937.53
2018-03-07T00:23:52.337Z,98934.87
2018-03-07T00:24:55.722Z,98938.45
2018-03-07T00:25:59.159Z,98939.89
2018-03-07T00:27:02.584Z,98928.42
2018-03-07T00:28:06.038Z,98937.40
2018-03-07T00:29:09.424Z,98936.48
2018-03-07T00:30:12.908Z,98934.82
2018-03-07T00:31:16.313Z,98937.18
2018-03-07T00:32:19.697Z,98933.27
2018-03-07T00:33:23.223Z,98934.60
2018-03-07T00:34:26.561Z,98939.01
2018-03-07T00:35:29.876Z,98939.59
2018-03-07T00:36:33.293Z,98938.27
2018-03-07T00:37:37.077Z,98948.91
2018-03-07T00:38:40.488Z,98935.69
2018-03-07T00:39:43.860Z,98941.53
2018-03-07T00:40:47.284Z,98942.33
2018-03-07T00:41:50.637Z,98940.01
2018-03-07T00:42:54.582Z,98932.22
2018-03-07T00:43:57.917Z,98933.64
2018-03-07T00:45:01.390Z,98934.05
2018-03-07T00:46:04.695Z,98933.64
2018-03-07T00:47:08.154Z,98933.64
2018-03-07T00:48:11.656Z,98932.39
2018-03-07T00:49:15.998Z,98931.97
2018-03-07T00:50:19.372Z,98940.53
2018-03-07T00:51:22.842Z,98930.84
2018-03-07T00:52:26.336Z,98940.66
2018-03-07T00:53:29.717Z,98938.16
2018-03-07T00:54:33.204Z,98943.97
2018-03-07T00:55:36.617Z,98940.59
2018-03-07T00:56:40.058Z,98942.84
2018-03-07T00:57:43.380Z,98941.18
2018-03-07T00:58:47.017Z,98947.25
2018-03-07T00:59:50.563Z,98942.09
2018-03-07T01:00:54.046Z,98942.09
2018-03-07T01:01:57.449Z,98939.93
2018-03-07T01:03:00.885Z,98943.20
2018-03-07T01:04:04.267Z,98942.70
2018-03-07T01:05:07.746Z,98943.29
2018-03-07T01:06:12.691Z,98942.54
2018-03-07T01:07:16.032Z,98945.39
2018-03-07T01:08:19.438Z,98945.48
2018-03-07T01:09:22.772Z,98945.06
2018-03-07T01:10:26.229Z,98944.73
2018-03-07T01:11:29.614Z,98941.77
2018-03-07T01:12:32.988Z,98941.84
2018-03-07T01:13:36.411Z,98940.94
2018-03-07T01:14:39.881Z,98933.95
2018-03-07T01:15:43.328Z,98931.91
2018-03-07T01:16:46.649Z,98937.27
2018-03-07T01:17:50.122Z,98933.37
2018-03-07T01:18:53.497Z,98930.30
2018-03-07T01:19:56.829Z,98931.29
2018-03-07T01:21:00.194Z,98930.88
2018-03-07T01:22:03.623Z,98924.34
2018-03-07T01:23:07.062Z,98936.39
2018-03-07T01:24:10.397Z,98931.91
2018-03-07T01:25:13.721Z,98935.48
2018-03-07T01:26:17.104Z,98935.55
2018-03-07T01:27:20.517Z,98933.48
2018-03-07T01:28:23.876Z,98936.25
2018-03-07T01:29:27.259Z,98943.89
2018-03-07T01:30:30.584Z,98938.16
2018-03-07T01:31:34.135Z,98937.03
2018-03-07T01:32:37.467Z,98944.67
2018-03-07T01:33:40.805Z,98936.44
2018-03-07T01:34:44.128Z,98937.97
2018-03-07T01:35:47.449Z,98936.72
2018-03-07T01:36:50.997Z,98940.07
2018-03-07T01:37:54.490Z,98938.61
2018-03-07T01:38:57.864Z,98937.11
2018-03-07T01:40:01.197Z,98938.70
2018-03-07T01:41:04.628Z,98942.97
2018-03-07T01:42:08.042Z,98946.41
2018-03-07T01:43:11.479Z,98937.62
2018-03-07T01:44:14.854Z,98938.39
2018-03-07T01:45:18.262Z,98948.63
2018-03-07T01:46:21.572Z,98942.76
2018-03-07T01:47:25.003Z,98950.17
2018-03-07T01:48:28.315Z,98944.88
2018-03-07T01:49:33.251Z,98949.22
2018-03-07T01:50:37.435Z,98947.19
2018-03-07T01:51:52.430Z,98942.72
2018-03-07T01:52:56.864Z,98947.73
2018-03-07T01:54:01.049Z,98944.44
2018-03-07T01:55:04.494Z,98949.69
2018-03-07T01:56:07.851Z,98938.50
2018-03-07T01:57:11.271Z,98939.16
2018-03-07T01:58:14.645Z,98938.09
2018-03-07T01:59:18.038Z,98937.04
2018-03-07T02:00:21.497Z,98936.48
2018-03-07T02:01:24.901Z,98928.25
2018-03-07T02:02:28.369Z,98935.58
2018-03-07T02:03:31.869Z,98936.34
2018-03-07T02:04:35.301Z,98934.45
2018-03-07T02:05:38.667Z,98939.92
2018-03-07T02:06:41.996Z,98938.87
2018-03-07T02:07:45.347Z,98937.77
2018-03-07T02:08:48.792Z,98936.72
2018-03-07T02:09:52.213Z,98941.38
2018-03-07T02:10:55.596Z,98932.86
2018-03-07T02:11:59.066Z,98938.81
2018-03-07T02:13:02.446Z,98934.61
2018-03-07T02:14:05.954Z,98933.02
2018-03-07T02:15:09.282Z,98934.62
2018-03-07T02:16:12.668Z,98932.64
2018-03-07T02:17:16.019Z,98928.41
2018-03-07T02:18:19.340Z,98930.00
2018-03-07T02:19:22.867Z,98928.52
2018-03-07T02:20:26.234Z,98932.66
2018-03-07T02:21:29.624Z,98931.52
2018-03-07T02:22:33.011Z,98933.84
2018-03-07T02:23:36.388Z,98937.06
2018-03-07T02:24:39.969Z,98934.19
2018-03-07T02:25:43.305Z,98931.69
2018-03-07T02:26:46.630Z,98932.78
2018-03-07T02:27:50.008Z,98937.30
2018-03-07T02:28:53.321Z,98931.84
2018-03-07T02:29:56.713Z,98933.25
2018-03-07T02:31:00.023Z,98931.28
2018-03-07T02:32:03.388Z,98931.85
2018-03-07T02:33:06.692Z,98932.34
2018-03-07T02:34:10.004Z,98930.79
2018-03-07T02:35:13.485Z,98934.02
2018-03-07T02:36:28.634Z,98933.71
2018-03-07T02:37:31.964Z,98932.47
2018-03-07T02:38:35.377Z,98931.14
2018-03-07T02:39:38.760Z,98934.63
2018-03-07T02:40:42.173Z,98930.72
2018-03-07T02:41:45.502Z,98933.87
2018-03-07T02:42:48.841Z,98930.80
2018-03-07T02:43:52.239Z,98929.06
2018-03-07T02:44:55.753Z,98932.62
2018-03-07T02:45:59.105Z,98935.27
2018-03-07T02:47:02.429Z,98928.07
2018-03-07T02:48:05.788Z,98925.42
2018-03-07T02:49:09.215Z,98927.08
2018-03-07T02:50:14.568Z,98921.09
2018-03-07T02:51:17.944Z,98930.38
2018-03-07T02:52:21.262Z,98925.75
2018-03-07T02:53:25.047Z,98924.42
2018-03-07T02:54:28.378Z,98920.11
2018-03-07T02:55:31.719Z,98926.32
2018-03-07T02:56:35.115Z,98923.83
2018-03-07T02:57:38.468Z,98921.78
2018-03-07T02:58:41.810Z,98921.44
2018-03-07T02:59:45.149Z,98921.02
2018-03-07T03:00:48.489Z,98925.68
2018-03-07T03:01:51.886Z,98923.59
2018-03-07T03:02:55.221Z,98920.72
2018-03-07T03:03:58.608Z,98921.86
2018-03-07T03:05:01.946Z,98926.44
2018-03-07T03:06:05.267Z,98927.61
2018-03-07T03:07:09.437Z,98927.77
2018-03-07T03:08:12.749Z,98928.45
2018-03-07T03:09:16.140Z,98925.87
2018-03-07T03:10:19.435Z,98924.28
2018-03-07T03:11:22.769Z,98929.70
2018-03-07T03:12:26.232Z,98928.45
2018-03-07T03:13:29.625Z,98926.47
2018-03-07T03:14:33.050Z,98926.63
2018-03-07T03:15:36.461Z,98927.13
2018-03-07T03:16:39.829Z,98928.94
2018-03-07T03:17:43.187Z,98925.45
2018-03-07T03:18:46.582Z,98929.05
2018-03-07T03:19:49.912Z,98926.78
2018-03-07T03:20:54.263Z,98928.03
2018-03-07T03:22:00.155Z,98928.94
2018-03-07T03:23:03.498Z,98937.31
2018-03-07T03:24:06.887Z,98930.68
2018-03-07T03:25:11.502Z,98931.52
2018-03-07T03:26:14.970Z,98930.61
2018-03-07T03:27:18.313Z,98928.78
2018-03-07T03:28:21.691Z,98934.02
2018-03-07T03:29:25.016Z,98931.02
2018-03-07T03:30:28.769Z,98929.44
2018-03-07T03:31:32.092Z,98926.97
2018-03-07T03:32:35.414Z,98930.68
2018-03-07T03:33:38.781Z,98928.14
2018-03-07T03:34:42.111Z,98926.06
2018-03-07T03:35:45.503Z,98931.85
2018-03-07T03:36:48.945Z,98928.37
2018-03-07T03:37:52.273Z,98930.22
2018-03-07T03:38:55.629Z,98928.55
2018-03-07T03:39:58.997Z,98930.38
2018-03-07T03:41:02.292Z,98925.07
2018-03-07T03:42:05.779Z,98931.36
2018-03-07T03:43:09.156Z,98931.54
2018-03-07T03:44:12.538Z,98932.94
2018-03-07T03:45:15.965Z,98931.70
2018-03-07T03:46:19.422Z,98925.90
2018-03-07T03:47:23.577Z,98936.16
2018-03-07T03:48:26.989Z,98926.99
2018-03-07T03:49:30.412Z,98925.98
2018-03-07T03:50:34.596Z,98926.39
2018-03-07T03:51:38.025Z,98923.73
2018-03-07T03:52:41.347Z,98932.61
2018-03-07T03:53:44.753Z,98925.25
2018-03-07T03:54:48.182Z,98930.62
2018-03-07T03:55:51.502Z,98925.48
2018-03-07T03:56:54.910Z,98926.50
2018-03-07T03:57:58.287Z,98921.42
2018-03-07T03:59:01.680Z,98928.31
2018-03-07T04:00:05.021Z,98924.52
2018-03-07T04:01:08.424Z,98929.56
2018-03-07T04:02:11.836Z,98932.47
2018-03-07T04:03:15.228Z,98930.38
2018-03-07T04:04:18.572Z,98925.00
2018-03-07T04:05:21.960Z,98923.94
2018-03-07T04:06:25.315Z,98931.31
2018-03-07T04:07:28.682Z,98924.84
2018-03-07T04:08:32.080Z,98924.19
2018-03-07T04:09:35.402Z,98930.12
2018-03-07T04:10:38.835Z,98928.08
2018-03-07T04:11:42.169Z,98924.75
2018-03-07T04:12:45.493Z,98925.42
2018-03-07T04:13:48.876Z,98933.94
2018-03-07T04:14:52.225Z,98931.97
2018-03-07T04:15:55.626Z,98930.72
2018-03-07T04:16:58.984Z,98932.64
2018-03-07T04:18:02.368Z,98937.25
2018-03-07T04:19:05.771Z,98927.33
2018-03-07T04:20:09.219Z,98931.80
2018-03-07T04:21:12.579Z,98930.55
2018-03-07T04:22:15.936Z,98925.01
2018-03-07T04:23:19.322Z,98927.24
2018-03-07T04:24:22.679Z,98926.17
2018-03-07T04:25:26.157Z,98928.97
2018-03-07T04:26:29.578Z,98926.09
2018-03-07T04:27:32.988Z,98933.77
2018-03-07T04:28:36.296Z,98929.56
2018-03-07T04:29:39.759Z,98935.34
2018-03-07T04:30:43.069Z,98933.34
2018-03-07T04:31:46.501Z,98930.88
2018-03-07T04:32:49.887Z,98936.24
2018-03-07T04:33:53.317Z,98934.99
2018-03-07T04:34:56.664Z,98941.30
2018-03-07T04:36:00.094Z,98943.46
2018-03-07T04:37:03.502Z,98944.52
2018-03-07T04:38:06.868Z,98948.98
2018-03-07T04:39:10.250Z,98948.98
2018-03-07T04:40:13.621Z,98948.98
2018-03-07T04:41:16.961Z,98953.13
2018-03-07T04:42:20.397Z,98956.62
2018-03-07T04:43:23.731Z,98953.13
2018-03-07T04:44:27.173Z,98957.84
2018-03-07T04:45:30.492Z,98959.58
2018-03-07T04:46:33.911Z,98956.44
2018-03-07T04:47:38.124Z,98954.13
2018-03-07T04:48:41.677Z,98948.83
2018-03-07T04:49:45.018Z,98950.47
2018-03-07T04:50:49.324Z,98949.91
2018-03-07T04:51:52.697Z,98947.33
2018-03-07T04:52:56.103Z,98938.48
2018-03-07T04:53:59.483Z,98941.54
2018-03-07T04:55:02.933Z,98940.70
2018-03-07T04:56:06.813Z,98934.92
2018-03-07T04:57:10.194Z,98939.56
2018-03-07T04:58:13.668Z,98934.76
2018-03-07T04:59:17.135Z,98937.66
2018-03-07T05:00:20.666Z,98934.67
2018-03-07T05:01:23.987Z,98940.22
2018-03-07T05:02:27.357Z,98938.97
2018-03-07T05:03:30.847Z,98939.22
2018-03-07T05:04:34.243Z,98945.50
2018-03-07T05:05:37.590Z,98946.48
2018-03-07T05:06:40.939Z,98944.43
2018-03-07T05:07:44.393Z,98948.55
2018-03-07T05:08:47.782Z,98950.13
2018-03-07T05:09:51.473Z,98949.37
2018-03-07T05:10:54.813Z,98946.48
2018-03-07T05:11:58.248Z,98948.86
2018-03-07T05:13:01.604Z,98947.61
2018-03-07T05:14:05.424Z,98950.02
2018-03-07T05:15:08.795Z,98949.36
2018-03-07T05:16:12.137Z,98944.63
2018-03-07T05:17:15.461Z,98949.51
2018-03-07T05:18:18.799Z,98950.48
2018-03-07T05:19:22.314Z,98944.54
2018-03-07T05:20:25.653Z,98942.38
2018-03-07T05:21:29.024Z,98945.52
2018-03-07T05:22:32.382Z,98950.50
2018-03-07T05:23:35.978Z,98943.47
2018-03-07T05:24:39.356Z,98950.58
2018-03-07T05:25:42.772Z,98943.20
2018-03-07T05:26:46.142Z,98950.72
2018-03-07T05:27:50.296Z,98943.27
2018-03-07T05:28:53.721Z,98947.23
2018-03-07T05:29:57.140Z,98957.34
2018-03-07T05:31:00.448Z,98949.73
2018-03-07T05:32:03.782Z,98948.91
2018-03-07T05:33:07.109Z,98950.58
2018-03-07T05:34:10.488Z,98946.11
2018-03-07T05:35:13.876Z,98947.67
2018-03-07T05:36:17.314Z,98952.90
2018-03-07T05:37:20.667Z,98949.76
2018-03-07T05:38:24.008Z,98953.14
2018-03-07T05:39:27.345Z,98954.39
2018-03-07T05:40:30.720Z,98954.73
2018-03-07T05:41:34.027Z,98961.59
2018-03-07T05:42:37.364Z,98961.93
2018-03-07T05:43:40.693Z,98956.98
2018-03-07T05:44:44.042Z,98955.97
2018-03-07T05:45:47.505Z,98962.09
2018-03-07T05:46:50.839Z,98961.95
2018-03-07T05:47:54.145Z,98962.78
2018-03-07T05:48:57.598Z,98964.00
2018-03-07T05:50:00.902Z,98963.44
2018-03-07T05:51:05.192Z,98959.81
2018-03-07T05:52:08.535Z,98962.95
2018-03-07T05:53:11.904Z,98965.83
2018-03-07T05:54:15.303Z,98971.89
2018-03-07T05:55:18.686Z,98974.88
2018-03-07T05:56:22.040Z,98965.09
2018-03-07T05:57:25.430Z,98971.22
2018-03-07T05:58:28.847Z,98971.22
2018-03-07T05:59:32.202Z,98977.84
2018-03-07T06:00:35.592Z,98975.20
2018-03-07T06:01:38.959Z,98960.70
2018-03-07T06:02:42.378Z,98967.67
2018-03-07T06:03:45.738Z,98964.67
2018-03-07T06:04:49.110Z,98971.30
2018-03-07T06:05:52.446Z,98963.95
2018-03-07T06:06:56.081Z,98969.39
2018-03-07T06:07:59.409Z,98968.66
2018-03-07T06:09:02.753Z,98965.33
2018-03-07T06:10:06.164Z,98963.20
2018-03-07T06:11:09.484Z,98965.02
2018-03-07T06:12:12.887Z,98965.16
2018-03-07T06:13:16.246Z,98966.66
2018-03-07T06:14:20.585Z,98963.75
2018-03-07T06:15:24.036Z,98960.38
2018-03-07T06:16:27.358Z,98964.00
2018-03-07T06:17:30.712Z,98967.14
2018-03-07T06:18:34.068Z,98963.23
2018-03-07T06:19:37.402Z,98962.51
2018-03-07T06:20:40.716Z,98962.92
2018-03-07T06:21:44.028Z,98963.31
2018-03-07T06:22:47.434Z,98961.60
2018-03-07T06:23:50.785Z,98963.66
2018-03-07T06:24:54.200Z,98962.67
2018-03-07T06:25:57.588Z,98959.43
2018-03-07T06:27:00.975Z,98961.02
2018-03-07T06:28:04.319Z,98963.77
2018-03-07T06:29:07.747Z,98968.57
2018-03-07T06:30:11.066Z,98966.16
2018-03-07T06:31:14.377Z,98971.73
2018-03-07T06:32:17.830Z,98971.89
2018-03-07T06:33:21.206Z,98964.04
2018-03-07T06:34:24.613Z,98962.31
2018-03-07T06:35:27.971Z,98965.78
2018-03-07T06:36:31.301Z,98965.37
2018-03-07T06:37:34.646Z,98964.48
2018-03-07T06:38:38.019Z,98963.98
2018-03-07T06:39:41.325Z,98964.48
2018-03-07T06:40:44.688Z,98962.27
2018-03-07T06:41:48.147Z,98968.97
2018-03-07T06:42:51.552Z,98973.80
2018-03-07T06:43:55.062Z,98970.73
2018-03-07T06:44:58.373Z,98968.06
2018-03-07T06:46:01.930Z,98971.63
2018-03-07T06:47:05.257Z,98976.68
2018-03-07T06:48:08.725Z,98979.10
2018-03-07T06:49:12.109Z,98978.92
2018-03-07T06:50:15.563Z,98981.42
2018-03-07T06:51:19.147Z,98983.89
2018-03-07T06:52:22.716Z,98982.00
2018-03-07T06:53:33.127Z,98983.66
2018-03-07T06:54:37.155Z,98981.66
2018-03-07T06:55:40.664Z,98983.32
2018-03-07T06:56:44.111Z,98975.95
2018-03-07T06:57:47.513Z,98991.94
2018-03-07T06:58:50.955Z,98985.16
2018-03-07T06:59:54.366Z,98983.42
2018-03-07T07:00:57.743Z,98980.67
2018-03-07T07:02:01.191Z,98977.27
2018-03-07T07:03:04.512Z,98975.76
2018-03-07T07:04:07.819Z,98975.35
2018-03-07T07:05:11.228Z,98965.89
2018-03-07T07:06:14.562Z,98967.48
2018-03-07T07:07:17.882Z,98974.68
2018-03-07T07:08:21.192Z,98973.58
2018-03-07T07:09:24.521Z,98970.59
2018-03-07T07:10:27.964Z,98977.22
2018-03-07T07:11:31.333Z,98977.30
2018-03-07T07:12:34.688Z,98978.55
2018-03-07T07:13:38.089Z,98980.55
2018-03-07T07:14:41.475Z,98980.55
2018-03-07T07:15:44.918Z,98983.36
2018-03-07T07:16:48.653Z,98986.08
2018-03-07T07:17:52.314Z,98990.78
2018-03-07T07:18:55.758Z,98990.22
2018-03-07T07:19:59.101Z,98996.84
2018-03-07T07:21:02.597Z,99003.98
2018-03-07T07:22:05.989Z,99011.52
2018-03-07T07:23:09.386Z,99012.63
2018-03-07T07:24:12.789Z,99021.76
2018-03-07T07:25:16.232Z,99017.70
2018-03-07T07:26:19.636Z,99017.20
2018-03-07T07:27:23.059Z,99015.17
2018-03-07T07:28:26.608Z,99020.73
2018-03-07T07:29:29.943Z,99022.83
2018-03-07T07:30:33.306Z,99020.40
2018-03-07T07:31:36.695Z,99023.73
2018-03-07T07:32:40.073Z,99023.66
2018-03-07T07:33:43.574Z,99025.31
2018-03-07T07:34:46.947Z,99026.64
2018-03-07T07:35:50.381Z,99029.55
2018-03-07T07:36:54.000Z,99027.96
2018-03-07T07:37:57.328Z,99023.75
2018-03-07T07:39:01.405Z,99022.99
2018-03-07T07:40:05.058Z,99023.67
2018-03-07T07:41:08.436Z,99029.65
2018-03-07T07:42:12.243Z,99031.96
2018-03-07T07:43:15.550Z,99030.71
2018-03-07T07:44:18.939Z,99033.02
2018-03-07T07:45:22.251Z,99033.96
2018-03-07T07:46:25.595Z,99042.30
2018-03-07T07:47:29.022Z,99042.30
2018-03-07T07:48:32.509Z,99036.09
2018-03-07T07:49:35.872Z,99047.05
2018-03-07T07:50:39.184Z,99045.04
2018-03-07T07:51:43.485Z,99038.75
2018-03-07T07:52:46.897Z,99035.19
2018-03-07T07:53:50.324Z,99036.85
2018-03-07T07:54:53.744Z,99040.76
2018-03-07T07:55:57.074Z,99034.63
2018-03-07T07:57:00.464Z,99033.70
2018-03-07T07:58:04.692Z,99036.78
2018-03-07T07:59:09.603Z,99037.69
2018-03-07T08:00:15.381Z,99035.84
2018-03-07T08:01:18.733Z,99040.23
2018-03-07T08:02:22.093Z,99045.46
2018-03-07T08:03:25.483Z,99041.48
2018-03-07T08:04:28.943Z,99046.30
2018-03-07T08:05:32.419Z,99044.13
2018-03-07T08:06:35.957Z,99051.11
2018-03-07T08:07:39.332Z,99048.37
2018-03-07T08:08:42.677Z,99049.52
2018-03-07T08:09:46.067Z,99052.52
2018-03-07T08:10:49.402Z,99054.67
2018-03-07T08:11:52.746Z,99065.10
2018-03-07T08:12:56.122Z,99064.69
2018-03-07T08:13:59.704Z,99071.24
2018-03-07T08:15:03.103Z,99061.20
2018-03-07T08:16:06.660Z,99057.33
2018-03-07T08:17:10.034Z,99070.67
2018-03-07T08:18:13.427Z,99070.59
2018-03-07T08:19:16.745Z,99069.34
2018-03-07T08:20:20.119Z,99067.26
2018-03-07T08:21:23.607Z,99065.28
2018-03-07T08:22:27.096Z,99076.38
2018-03-07T08:23:30.525Z,99062.89
2018-03-07T08:24:35.475Z,99068.76
2018-03-07T08:25:38.865Z,99068.00
2018-03-07T08:26:42.173Z,99064.86
2018-03-07T08:27:45.514Z,99064.36
2018-03-07T08:28:48.919Z,99066.94
2018-03-07T08:29:53.199Z,99062.78
2018-03-07T08:30:56.512Z,99060.96
2018-03-07T08:31:59.868Z,99059.06
2018-03-07T08:33:03.233Z,99056.75
2018-03-07T08:34:06.580Z,99057.97
2018-03-07T08:35:10.074Z,99058.23
2018-03-07T08:36:13.440Z,99051.84
2018-03-07T08:37:16.843Z,99059.23
2018-03-07T08:38:20.260Z,99057.07
2018-03-07T08:39:23.857Z,99054.34
2018-03-07T08:40:27.338Z,99057.07
2018-03-07T08:41:30.646Z,99055.33
2018-03-07T08:42:34.024Z,99050.02
2018-03-07T08:43:37.443Z,99057.98
2018-03-07T08:44:40.850Z,99058.39
2018-03-07T08:45:44.203Z,99057.30
2018-03-07T08:46:47.522Z,99059.39
2018-03-07T08:47:51.038Z,99056.66
2018-03-07T08:48:54.425Z,99055.15
2018-03-07T08:49:57.797Z,99053.67
2018-03-07T08:51:01.137Z,99057.39
2018-03-07T08:52:05.363Z,99051.44
2018-03-07T08:53:08.728Z,99055.31
2018-03-07T08:54:12.148Z,99052.73
2018-03-07T08:55:15.488Z,99062.81
2018-03-07T08:56:18.839Z,99059.56
2018-03-07T08:57:22.243Z,99061.95
2018-03-07T08:58:26.197Z,99067.84
2018-03-07T08:59:29.563Z,99058.44
2018-03-07T09:00:32.937Z,99065.64
2018-03-07T09:01:36.399Z,99062.97
2018-03-07T09:02:39.701Z,99067.94
2018-03-07T09:03:43.017Z,99066.75
2018-03-07T09:04:46.375Z,99064.73
2018-03-07T09:05:49.719Z,99064.55
2018-03-07T09:06:53.219Z,99062.63
2018-03-07T09:07:56.532Z,99066.08
2018-03-07T09:08:59.916Z,99063.83
2018-03-07T09:10:03.275Z,99066.06
2018-03-07T09:11:06.714Z,99065.63
2018-03-07T09:12:10.042Z,99063.84
2018-03-07T09:13:13.358Z,99069.23
2018-03-07T09:14:16.684Z,99066.83
2018-03-07T09:15:20.057Z,99073.20
2018-03-07T09:16:24.360Z,99074.03
2018-03-07T09:17:27.687Z,99073.19
2018-03-07T09:18:31.056Z,99073.83
2018-03-07T09:19:34.423Z,99075.58
2018-03-07T09:20:38.228Z,99078.57
2018-03-07T09:21:41.509Z,99071.09
2018-03-07T09:22:45.609Z,99071.59
2018-03-07T09:23:48.924Z,99076.67
2018-03-07T09:24:52.240Z,99073.77
2018-03-07T09:25:55.563Z,99075.86
2018-03-07T09:26:58.912Z,99075.79
2018-03-07T09:28:02.281Z,99075.39
2018-03-07T09:29:05.788Z,99076.27
2018-03-07T09:30:09.148Z,99079.66
2018-03-07T09:31:12.556Z,99084.33
2018-03-07T09:32:15.939Z,99085.50
2018-03-07T09:33:19.345Z,99088.51
2018-03-07T09:34:22.792Z,99093.56
2018-03-07T09:35:26.137Z,99087.27
2018-03-07T09:36:29.501Z,99091.94
2018-03-07T09:37:32.817Z,99097.09
2018-03-07T09:38:36.185Z,99094.19
2018-03-07T09:39:39.661Z,99094.52
2018-03-07T09:40:43.052Z,99092.09
2018-03-07T09:41:46.517Z,99101.16
2018-03-07T09:42:49.880Z,99102.78
2018-03-07T09:43:53.310Z,99100.53
2018-03-07T09:44:56.690Z,99102.24
2018-03-07T09:46:00.005Z,99101.32
2018-03-07T09:47:03.328Z,99104.80
2018-03-07T09:48:06.708Z,99108.25
2018-03-07T09:49:10.147Z,99101.37
2018-03-07T09:50:13.488Z,99110.06
2018-03-07T09:51:16.899Z,99101.59
2018-03-07T09:52:20.426Z,99102.77
2018-03-07T09:53:23.769Z,99103.98
2018-03-07T09:54:27.126Z,99100.75
2018-03-07T09:55:30.467Z,99101.81
2018-03-07T09:56:33.907Z,99105.72
2018-03-07T09:57:37.315Z,99104.97
2018-03-07T09:58:40.645Z,99106.30
2018-03-07T09:59:44.084Z,99107.73
2018-03-07T10:00:48.263Z,99106.14
2018-03-07T10:01:51.663Z,99106.83
2018-03-07T10:02:55.000Z,99108.32
2018-03-07T10:03:58.390Z,99107.67
2018-03-07T10:05:03.585Z,99103.35
2018-03-07T10:06:06.914Z,99111.82
2018-03-07T10:07:10.319Z,99105.78
2018-03-07T10:08:13.730Z,99110.77
2018-03-07T10:09:17.108Z,99113.00
2018-03-07T10:10:20.458Z,99110.69
2018-03-07T10:11:23.786Z,99116.41
2018-03-07T10:12:27.123Z,99113.00
2018-03-07T10:13:30.428Z,99116.58
2018-03-07T10:14:33.796Z,99119.84
2018-03-07T10:15:37.175Z,99123.91
2018-03-07T10:16:40.585Z,99114.52
2018-03-07T10:17:43.898Z,99124.48
2018-03-07T10:18:47.253Z,99124.06
2018-03-07T10:19:50.765Z,99131.20
2018-03-07T10:20:54.158Z,99129.80
2018-03-07T10:21:57.549Z,99123.64
2018-03-07T10:23:00.857Z,99129.71
2018-03-07T10:24:04.310Z,99128.80
2018-03-07T10:25:07.631Z,99132.02
2018-03-07T10:26:11.052Z,99131.67
2018-03-07T10:27:14.391Z,99137.67
2018-03-07T10:28:17.716Z,99131.59
2018-03-07T10:29:21.071Z,99134.40
2018-03-07T10:30:24.533Z,99134.05
2018-03-07T10:31:27.904Z,99138.94
2018-03-07T10:32:31.291Z,99141.33
2018-03-07T10:33:34.628Z,99139.16
2018-03-07T10:34:37.957Z,99139.72
2018-03-07T10:35:41.671Z,99134.96
2018-03-07T10:36:45.081Z,99138.44
2018-03-07T10:37:48.421Z,99142.72
2018-03-07T10:38:51.773Z,99146.23
2018-03-07T10:39:55.221Z,99140.48
2018-03-07T10:40:58.672Z,99142.59
2018-03-07T10:42:02.169Z,99149.50
2018-03-07T10:43:05.528Z,99140.42
2018-03-07T10:44:08.890Z,99150.48
2018-03-07T10:45:12.598Z,99145.72
2018-03-07T10:46:15.977Z,99145.98
2018-03-07T10:47:19.396Z,99145.78
2018-03-07T10:48:22.713Z,99144.88
2018-03-07T10:49:26.067Z,99147.78
2018-03-07T10:50:29.422Z,99147.93
2018-03-07T10:51:32.780Z,99142.34
2018-03-07T10:52:36.965Z,99148.41
2018-03-07T10:53:40.386Z,99154.15
2018-03-07T10:54:43.790Z,99148.14
2018-03-07T10:55:47.332Z,99154.93
2018-03-07T10:56:50.929Z,99160.59
2018-03-07T10:57:54.409Z,99147.28
2018-03-07T10:58:57.889Z,99154.44
2018-03-07T11:00:01.306Z,99160.33
2018-03-07T11:01:04.686Z,99152.88
2018-03-07T11:02:08.142Z,99157.11
2018-03-07T11:03:11.555Z,99155.00
2018-03-07T11:04:14.954Z,99151.86
2018-03-07T11:05:18.288Z,99151.72
2018-03-07T11:06:21.815Z,99154.37
2018-03-07T11:07:25.159Z,99156.09
2018-03-07T11:08:29.194Z,99157.84
2018-03-07T11:09:32.722Z,99155.17
2018-03-07T11:10:36.194Z,99152.94
2018-03-07T11:11:40.290Z,99153.84
2018-03-07T11:12:43.941Z,99157.76
2018-03-07T11:13:47.421Z,99155.09
2018-03-07T11:14:50.777Z,99157.42
2018-03-07T11:15:54.266Z,99156.20
2018-03-07T11:16:57.633Z,99156.36
2018-03-07T11:18:01.023Z,99159.94
2018-03-07T11:19:04.419Z,99152.03
2018-03-07T11:20:07.784Z,99157.77
2018-03-07T11:21:11.176Z,99157.36
2018-03-07T11:22:14.536Z,99161.88
2018-03-07T11:23:17.927Z,99159.63
2018-03-07T11:24:21.394Z,99161.95
2018-03-07T11:25:24.852Z,99166.61
2018-03-07T11:26:28.197Z,99160.64
2018-03-07T11:27:31.604Z,99164.71
2018-03-07T11:28:35.229Z,99162.16
2018-03-07T11:29:38.592Z,99168.89
2018-03-07T11:30:42.024Z,99167.14
2018-03-07T11:31:45.479Z,99165.48
2018-03-07T11:32:49.532Z,99164.34
2018-03-07T11:33:52.945Z,99162.83
2018-03-07T11:34:56.358Z,99165.77
2018-03-07T11:35:59.789Z,99163.34
2018-03-07T11:37:03.133Z,99164.25
2018-03-07T11:38:06.518Z,99159.52
2018-03-07T11:39:09.969Z,99160.34
2018-03-07T11:40:13.380Z,99159.44
2018-03-07T11:41:19.682Z,99164.53
2018-03-07T11:42:23.021Z,99161.61
2018-03-07T11:43:26.452Z,99160.36
2018-03-07T11:44:29.773Z,99162.37
2018-03-07T11:45:33.183Z,99162.95
2018-03-07T11:46:36.646Z,99168.54
2018-03-07T11:47:40.160Z,99164.91
2018-03-07T11:48:43.515Z,99166.72
2018-03-07T11:49:46.950Z,99169.72
2018-03-07T11:50:50.518Z,99172.30
2018-03-07T11:51:53.976Z,99174.44
2018-03-07T11:52:58.215Z,99170.28
2018-03-07T11:54:01.572Z,99169.30
2018-03-07T11:55:05.032Z,99173.92
2018-03-07T11:56:08.504Z,99175.09
2018-03-07T11:57:11.816Z,99166.77
2018-03-07T11:58:15.170Z,99170.48
2018-03-07T11:59:18.740Z,99169.99
2018-03-07T12:00:22.112Z,99175.31
2018-03-07T12:01:25.546Z,99174.81
2018-03-07T12:02:30.585Z,99172.83
2018-03-07T12:03:34.040Z,99170.92
2018-03-07T12:04:37.360Z,99167.58
2018-03-07T12:05:40.695Z,99177.95
2018-03-07T12:06:44.084Z,99168.97
2018-03-07T12:07:47.455Z,99172.73
2018-03-07T12:08:50.806Z,99167.50
2018-03-07T12:09:54.196Z,99170.99
2018-03-07T12:10:57.812Z,99170.58
2018-03-07T12:12:01.207Z,99169.66
2018-03-07T12:13:04.559Z,99177.80
2018-03-07T12:14:07.957Z,99174.50
2018-03-07T12:15:11.644Z,99171.73
2018-03-07T12:16:15.042Z,99172.09
2018-03-07T12:17:18.449Z,99163.85
2018-03-07T12:18:21.823Z,99168.95
2018-03-07T12:19:25.205Z,99164.95
2018-03-07T12:20:28.634Z,99165.95
2018-03-07T12:21:31.952Z,99165.61
2018-03-07T12:22:35.323Z,99166.52
2018-03-07T12:23:38.724Z,99156.99
2018-03-07T12:24:42.196Z,99156.16
2018-03-07T12:25:45.537Z,99155.58